KDLO

Details ICAO KDLO
Name DELANO MUNI
Region United States
Timezone America/Los_Angeles (UTC-7.0)
Plans Departing 3
Arriving 3
Stats Elevation 314 ft / 96 m (AMSL)
Location 35.745581° -119.236506°
Runways 1
Magnetic Variation 12.487° E
Sunrise 2018-05-26 12:46:07 UTC / 2018-05-26 05:46:07 Local
Sunset 2018-05-27 03:04:48 UTC / 2018-05-26 20:04:48 Local
Advertisement - Login to hide

Runways

ID Width Length Bearing (true) Bearing (mag) Surface Threshold Offset Overrun Length
14 75 ft / 23 m 5,662 ft / 1,726 m 158.63° 146.14° Asphalt 1,640 ft / 500 m 300 ft / 91 m
32 75 ft / 23 m 5,662 ft / 1,726 m 338.63° 326.14° Asphalt 0 ft / 0 m 0 ft / 0 m

Map

Weather


0- 5 10 15 20 25 30 35+ Temperature / ° C

Clouds and Precipitation
Forecast for 2018-05-27 06:00 UTC. Updated 41 minutes ago

Ground ~20,000 ft ~40,000 ft Winds

METAR

KDLO 270555Z AUTO 34005KT 10SM CLR 18/07 A2997 RMK AO2 T01820071 10230 20182

TAF

Not found

Frequencies

Recorded 119.55 MHz AWOS 3
Approach 118.90 MHz BAKERSFIELD APP/DEP
Unicom 122.80 MHz CTAF/UNICOM
Warning: Do not use this data for real-world aviation or navigation. No guarantee of current accuracy is given.